Dothan, Alabama
Current Conditions -  °F | °C
As of 5:53 PM on Wednesday 26 Nov 2014 (Local Time) from KDHN Reporting Station
Clear Clear  
Wind Chill: 52°   Ceiling: Unl
Heat Index: 52°   Visibility: 10mi
Dew Point: 33°   Wind: 5mph
Humidity: 49%   Direction: 200°SSW
Pressure: 30.18"   Gusts: NA
Location:  31.22°N, 85.39°W
Report Text: KDHN 262353Z 20004KT 10SM CLR 11/01 A3018 RMK AO2 SLP220 T01110006 10161 20111 53005
Loading
Personal Weather Stations






























Interactive Weather Map New forecast layout! Learn more

10-Day Weather Forecast

Advertisements
Track Severe Weather on mobile